sensor_id;sensor_type;location;lat;lon;timestamp;P1;durP1;ratioP1;P2;durP2;ratioP2
33459;SDS011;19795;53.160;6.612;2023-02-15T05:39:02;81.80;;;35.83;;
33459;SDS011;19795;53.160;6.612;2023-02-15T05:41:29;88.43;;;37.38;;
33459;SDS011;19795;53.160;6.612;2023-02-15T05:46:29;84.97;;;36.90;;
33459;SDS011;19795;53.160;6.612;2023-02-15T05:48:55;90.00;;;37.40;;
33459;SDS011;19795;53.160;6.612;2023-02-15T05:51:21;79.22;;;36.20;;
33459;SDS011;19795;53.160;6.612;2023-02-15T05:53:46;90.40;;;39.50;;
33459;SDS011;19795;53.160;6.612;2023-02-15T05:56:12;92.28;;;38.17;;
33459;SDS011;19795;53.160;6.612;2023-02-15T05:58:39;93.78;;;40.45;;
33459;SDS011;19795;53.160;6.612;2023-02-15T06:01:09;117.70;;;46.22;;
33459;SDS011;19795;53.160;6.612;2023-02-15T06:03:40;167.50;;;51.92;;
33459;SDS011;19795;53.160;6.612;2023-02-15T06:06:06;141.68;;;50.25;;
33459;SDS011;19795;53.160;6.612;2023-02-15T06:08:32;126.28;;;44.97;;
33459;SDS011;19795;53.160;6.612;2023-02-15T06:10:59;115.65;;;45.22;;
33459;SDS011;19795;53.160;6.612;2023-02-15T06:13:25;234.60;;;54.25;;
33459;SDS011;19795;53.160;6.612;2023-02-15T06:15:51;471.98;;;67.35;;
33459;SDS011;19795;53.160;6.612;2023-02-15T06:18:20;456.52;;;70.53;;
33459;SDS011;19795;53.160;6.612;2023-02-15T06:20:46;692.08;;;87.65;;
33459;SDS011;19795;53.160;6.612;2023-02-15T06:23:12;668.15;;;88.22;;
33459;SDS011;19795;53.160;6.612;2023-02-15T06:25:38;483.70;;;80.25;;
33459;SDS011;19795;53.160;6.612;2023-02-15T06:28:04;628.55;;;92.22;;
33459;SDS011;19795;53.160;6.612;2023-02-15T06:30:29;426.05;;;79.90;;
33459;SDS011;19795;53.160;6.612;2023-02-15T06:32:55;295.60;;;68.53;;
33459;SDS011;19795;53.160;6.612;2023-02-15T06:35:21;1234.95;;;122.30;;
33459;SDS011;19795;53.160;6.612;2023-02-15T06:37:47;811.28;;;101.88;;
33459;SDS011;19795;53.160;6.612;2023-02-15T06:40:13;305.13;;;73.88;;
33459;SDS011;19795;53.160;6.612;2023-02-15T06:42:39;223.73;;;65.03;;
33459;SDS011;19795;53.160;6.612;2023-02-15T06:45:05;169.95;;;61.67;;
33459;SDS011;19795;53.160;6.612;2023-02-15T06:47:31;224.57;;;64.13;;
33459;SDS011;19795;53.160;6.612;2023-02-15T06:49:57;183.77;;;61.53;;
33459;SDS011;19795;53.160;6.612;2023-02-15T06:52:23;184.88;;;62.67;;
33459;SDS011;19795;53.160;6.612;2023-02-15T06:54:48;142.18;;;58.90;;
33459;SDS011;19795;53.160;6.612;2023-02-15T06:57:14;151.05;;;60.47;;
33459;SDS011;19795;53.160;6.612;2023-02-15T06:59:40;145.13;;;59.45;;
33459;SDS011;19795;53.160;6.612;2023-02-15T07:02:05;148.88;;;59.97;;
33459;SDS011;19795;53.160;6.612;2023-02-15T07:04:31;143.55;;;58.60;;
33459;SDS011;19795;53.160;6.612;2023-02-15T07:06:57;158.13;;;61.55;;
33459;SDS011;19795;53.160;6.612;2023-02-15T07:09:23;145.95;;;60.17;;
33459;SDS011;19795;53.160;6.612;2023-02-15T07:11:48;153.07;;;57.13;;
33459;SDS011;19795;53.160;6.612;2023-02-15T07:14:32;139.18;;;58.95;;
33459;SDS011;19795;53.160;6.612;2023-02-15T07:16:58;144.35;;;59.58;;
33459;SDS011;19795;53.160;6.612;2023-02-15T07:19:24;143.32;;;60.72;;
33459;SDS011;19795;53.160;6.612;2023-02-15T07:21:49;150.13;;;62.22;;
33459;SDS011;19795;53.160;6.612;2023-02-15T07:24:15;151.30;;;62.63;;
33459;SDS011;19795;53.160;6.612;2023-02-15T07:26:41;128.63;;;56.97;;
33459;SDS011;19795;53.160;6.612;2023-02-15T07:29:06;143.75;;;58.78;;
33459;SDS011;19795;53.160;6.612;2023-02-15T07:31:32;136.20;;;58.85;;
33459;SDS011;19795;53.160;6.612;2023-02-15T07:33:57;121.20;;;54.58;;
33459;SDS011;19795;53.160;6.612;2023-02-15T07:36:23;122.32;;;55.00;;
33459;SDS011;19795;53.160;6.612;2023-02-15T07:38:49;124.88;;;54.42;;
33459;SDS011;19795;53.160;6.612;2023-02-15T07:41:14;123.78;;;54.42;;
33459;SDS011;19795;53.160;6.612;2023-02-15T07:43:42;124.28;;;54.88;;
33459;SDS011;19795;53.160;6.612;2023-02-15T07:46:09;111.00;;;52.22;;
33459;SDS011;19795;53.160;6.612;2023-02-15T07:48:39;104.95;;;51.45;;
33459;SDS011;19795;53.160;6.612;2023-02-15T07:51:06;117.45;;;50.55;;
33459;SDS011;19795;53.160;6.612;2023-02-15T07:53:33;108.70;;;48.95;;
33459;SDS011;19795;53.160;6.612;2023-02-15T07:56:00;98.88;;;49.00;;
33459;SDS011;19795;53.160;6.612;2023-02-15T07:58:27;111.85;;;50.53;;
33459;SDS011;19795;53.160;6.612;2023-02-15T08:01:11;96.70;;;47.28;;
33459;SDS011;19795;53.160;6.612;2023-02-15T08:03:37;97.15;;;47.30;;
33459;SDS011;19795;53.160;6.612;2023-02-15T08:06:03;95.15;;;46.45;;
33459;SDS011;19795;53.160;6.612;2023-02-15T08:08:29;99.53;;;46.20;;
33459;SDS011;19795;53.160;6.612;2023-02-15T08:13:46;87.40;;;43.08;;
33459;SDS011;19795;53.160;6.612;2023-02-15T08:16:26;88.78;;;44.13;;
33459;SDS011;19795;53.160;6.612;2023-02-15T08:18:56;87.00;;;43.55;;
33459;SDS011;19795;53.160;6.612;2023-02-15T08:21:24;85.53;;;41.78;;
33459;SDS011;19795;53.160;6.612;2023-02-15T08:23:51;94.40;;;46.15;;
33459;SDS011;19795;53.160;6.612;2023-02-15T08:26:18;89.47;;;43.78;;
33459;SDS011;19795;53.160;6.612;2023-02-15T08:28:43;79.38;;;42.63;;
33459;SDS011;19795;53.160;6.612;2023-02-15T08:31:10;85.80;;;43.60;;
33459;SDS011;19795;53.160;6.612;2023-02-15T08:33:37;82.32;;;43.42;;
33459;SDS011;19795;53.160;6.612;2023-02-15T08:36:08;80.20;;;41.75;;
33459;SDS011;19795;53.160;6.612;2023-02-15T08:38:36;82.20;;;42.45;;
33459;SDS011;19795;53.160;6.612;2023-02-15T08:41:12;73.28;;;40.45;;
33459;SDS011;19795;53.160;6.612;2023-02-15T08:43:40;73.40;;;40.38;;
33459;SDS011;19795;53.160;6.612;2023-02-15T08:46:07;77.97;;;40.95;;
33459;SDS011;19795;53.160;6.612;2023-02-15T08:48:33;70.90;;;38.58;;
33459;SDS011;19795;53.160;6.612;2023-02-15T08:50:59;74.15;;;38.97;;
33459;SDS011;19795;53.160;6.612;2023-02-15T08:53:30;68.30;;;38.20;;
33459;SDS011;19795;53.160;6.612;2023-02-15T08:55:56;79.80;;;40.90;;
33459;SDS011;19795;53.160;6.612;2023-02-15T08:58:23;69.82;;;39.65;;
33459;SDS011;19795;53.160;6.612;2023-02-15T09:00:49;65.85;;;39.22;;
33459;SDS011;19795;53.160;6.612;2023-02-15T09:03:15;69.72;;;40.10;;
33459;SDS011;19795;53.160;6.612;2023-02-15T09:05:41;70.32;;;38.90;;
33459;SDS011;19795;53.160;6.612;2023-02-15T09:08:07;65.35;;;38.03;;
33459;SDS011;19795;53.160;6.612;2023-02-15T09:10:33;68.70;;;38.90;;
33459;SDS011;19795;53.160;6.612;2023-02-15T09:12:58;69.97;;;38.47;;
33459;SDS011;19795;53.160;6.612;2023-02-15T09:15:24;65.78;;;39.22;;
33459;SDS011;19795;53.160;6.612;2023-02-15T09:17:50;66.40;;;38.83;;
33459;SDS011;19795;53.160;6.612;2023-02-15T09:20:15;67.82;;;38.78;;
33459;SDS011;19795;53.160;6.612;2023-02-15T09:22:41;65.28;;;37.58;;
33459;SDS011;19795;53.160;6.612;2023-02-15T09:25:07;62.60;;;36.80;;
33459;SDS011;19795;53.160;6.612;2023-02-15T09:27:32;70.82;;;39.80;;
33459;SDS011;19795;53.160;6.612;2023-02-15T09:29:59;65.82;;;37.25;;
33459;SDS011;19795;53.160;6.612;2023-02-15T09:32:25;68.55;;;37.55;;
33459;SDS011;19795;53.160;6.612;2023-02-15T09:34:50;68.88;;;38.30;;
33459;SDS011;19795;53.160;6.612;2023-02-15T09:37:16;61.70;;;37.70;;
33459;SDS011;19795;53.160;6.612;2023-02-15T09:39:42;59.72;;;37.50;;
33459;SDS011;19795;53.160;6.612;2023-02-15T09:42:29;61.50;;;37.38;;
33459;SDS011;19795;53.160;6.612;2023-02-15T10:04:59;55.15;;;36.50;;
33459;SDS011;19795;53.160;6.612;2023-02-15T10:10:44;51.65;;;34.38;;
33459;SDS011;19795;53.160;6.612;2023-02-15T10:14:00;51.00;;;34.63;;
33459;SDS011;19795;53.160;6.612;2023-02-15T10:16:42;48.22;;;32.85;;
33459;SDS011;19795;53.160;6.612;2023-02-15T10:19:14;48.22;;;32.92;;
33459;SDS011;19795;53.160;6.612;2023-02-15T10:22:09;44.58;;;29.50;;
33459;SDS011;19795;53.160;6.612;2023-02-15T10:24:55;40.80;;;27.88;;
33459;SDS011;19795;53.160;6.612;2023-02-15T10:27:36;42.17;;;29.33;;
33459;SDS011;19795;53.160;6.612;2023-02-15T10:30:17;39.42;;;26.67;;
33459;SDS011;19795;53.160;6.612;2023-02-15T10:33:00;39.03;;;24.88;;
33459;SDS011;19795;53.160;6.612;2023-02-15T10:38:20;37.70;;;24.10;;
33459;SDS011;19795;53.160;6.612;2023-02-15T10:43:44;41.42;;;25.33;;
33459;SDS011;19795;53.160;6.612;2023-02-15T10:46:41;45.95;;;26.08;;
33459;SDS011;19795;53.160;6.612;2023-02-15T10:52:19;39.28;;;24.75;;
33459;SDS011;19795;53.160;6.612;2023-02-15T11:00:41;40.45;;;23.58;;
33459;SDS011;19795;53.160;6.612;2023-02-15T11:03:24;42.33;;;24.65;;
33459;SDS011;19795;53.160;6.612;2023-02-15T11:08:47;43.13;;;24.92;;
33459;SDS011;19795;53.160;6.612;2023-02-15T11:11:22;42.72;;;23.95;;
33459;SDS011;19795;53.160;6.612;2023-02-15T11:13:57;41.75;;;25.23;;
33459;SDS011;19795;53.160;6.612;2023-02-15T11:16:37;41.10;;;25.10;;
33459;SDS011;19795;53.160;6.612;2023-02-15T11:19:17;43.15;;;24.60;;
33459;SDS011;19795;53.160;6.612;2023-02-15T11:21:53;40.38;;;24.98;;
33459;SDS011;19795;53.160;6.612;2023-02-15T11:24:24;42.95;;;24.90;;
33459;SDS011;19795;53.160;6.612;2023-02-15T11:26:57;45.40;;;26.92;;
33459;SDS011;19795;53.160;6.612;2023-02-15T11:29:32;40.22;;;24.60;;
33459;SDS011;19795;53.160;6.612;2023-02-15T11:32:13;43.58;;;25.23;;
33459;SDS011;19795;53.160;6.612;2023-02-15T11:37:37;44.17;;;24.88;;
33459;SDS011;19795;53.160;6.612;2023-02-15T11:40:17;47.55;;;25.00;;
33459;SDS011;19795;53.160;6.612;2023-02-15T11:42:49;44.60;;;25.13;;
33459;SDS011;19795;53.160;6.612;2023-02-15T11:47:56;43.28;;;24.88;;
33459;SDS011;19795;53.160;6.612;2023-02-15T11:50:24;40.33;;;24.40;;
33459;SDS011;19795;53.160;6.612;2023-02-15T11:52:52;44.70;;;25.63;;
33459;SDS011;19795;53.160;6.612;2023-02-15T11:55:25;44.33;;;26.33;;
33459;SDS011;19795;53.160;6.612;2023-02-15T11:57:55;44.55;;;25.88;;
33459;SDS011;19795;53.160;6.612;2023-02-15T12:03:02;44.97;;;25.60;;
33459;SDS011;19795;53.160;6.612;2023-02-15T12:05:54;45.65;;;24.17;;
33459;SDS011;19795;53.160;6.612;2023-02-15T12:08:23;43.63;;;24.38;;
33459;SDS011;19795;53.160;6.612;2023-02-15T12:11:03;44.05;;;23.75;;
33459;SDS011;19795;53.160;6.612;2023-02-15T12:13:37;43.58;;;23.38;;
33459;SDS011;19795;53.160;6.612;2023-02-15T12:16:23;52.53;;;24.15;;
33459;SDS011;19795;53.160;6.612;2023-02-15T12:18:50;43.58;;;24.10;;
33459;SDS011;19795;53.160;6.612;2023-02-15T12:21:30;45.90;;;23.80;;
33459;SDS011;19795;53.160;6.612;2023-02-15T12:26:57;45.42;;;24.33;;
33459;SDS011;19795;53.160;6.612;2023-02-15T12:29:30;48.50;;;25.05;;
33459;SDS011;19795;53.160;6.612;2023-02-15T12:32:22;46.53;;;25.27;;
33459;SDS011;19795;53.160;6.612;2023-02-15T12:34:55;52.55;;;26.02;;
33459;SDS011;19795;53.160;6.612;2023-02-15T12:37:27;48.45;;;25.33;;
33459;SDS011;19795;53.160;6.612;2023-02-15T12:39:57;50.83;;;27.42;;
33459;SDS011;19795;53.160;6.612;2023-02-15T12:42:24;55.13;;;27.25;;
33459;SDS011;19795;53.160;6.612;2023-02-15T12:44:56;49.95;;;27.85;;
33459;SDS011;19795;53.160;6.612;2023-02-15T12:47:27;50.53;;;27.98;;
33459;SDS011;19795;53.160;6.612;2023-02-15T12:50:10;54.33;;;28.73;;
33459;SDS011;19795;53.160;6.612;2023-02-15T12:52:47;54.65;;;29.67;;
33459;SDS011;19795;53.160;6.612;2023-02-15T12:57:44;51.55;;;29.05;;
33459;SDS011;19795;53.160;6.612;2023-02-15T13:02:48;52.53;;;29.27;;
33459;SDS011;19795;53.160;6.612;2023-02-15T13:07:46;54.42;;;30.30;;
33459;SDS011;19795;53.160;6.612;2023-02-15T13:12:55;55.38;;;28.38;;
33459;SDS011;19795;53.160;6.612;2023-02-15T13:17:57;53.60;;;28.75;;
33459;SDS011;19795;53.160;6.612;2023-02-15T13:20:25;49.38;;;27.98;;
33459;SDS011;19795;53.160;6.612;2023-02-15T13:22:54;56.22;;;29.30;;
33459;SDS011;19795;53.160;6.612;2023-02-15T13:25:26;54.10;;;30.15;;
33459;SDS011;19795;53.160;6.612;2023-02-15T13:27:57;53.38;;;28.67;;
33459;SDS011;19795;53.160;6.612;2023-02-15T13:30:34;60.00;;;29.73;;
33459;SDS011;19795;53.160;6.612;2023-02-15T13:33:06;51.13;;;28.35;;
33459;SDS011;19795;53.160;6.612;2023-02-15T13:36:12;55.28;;;29.83;;
33459;SDS011;19795;53.160;6.612;2023-02-15T13:39:01;56.15;;;29.08;;
33459;SDS011;19795;53.160;6.612;2023-02-15T13:47:25;53.55;;;29.30;;
33459;SDS011;19795;53.160;6.612;2023-02-15T14:07:16;52.47;;;27.17;;
33459;SDS011;19795;53.160;6.612;2023-02-15T14:18:19;48.38;;;26.17;;
33459;SDS011;19795;53.160;6.612;2023-02-15T14:21:09;47.10;;;24.65;;
33459;SDS011;19795;53.160;6.612;2023-02-15T14:23:44;50.22;;;26.05;;
33459;SDS011;19795;53.160;6.612;2023-02-15T14:31:59;51.80;;;26.33;;
33459;SDS011;19795;53.160;6.612;2023-02-15T14:37:13;43.45;;;24.00;;
33459;SDS011;19795;53.160;6.612;2023-02-15T14:42:40;42.25;;;25.05;;
33459;SDS011;19795;53.160;6.612;2023-02-15T14:47:40;46.65;;;24.83;;
33459;SDS011;19795;53.160;6.612;2023-02-15T14:50:35;46.25;;;23.05;;
33459;SDS011;19795;53.160;6.612;2023-02-15T14:53:16;42.08;;;23.73;;
33459;SDS011;19795;53.160;6.612;2023-02-15T14:58:36;45.35;;;23.92;;
33459;SDS011;19795;53.160;6.612;2023-02-15T15:01:50;44.45;;;23.83;;
33459;SDS011;19795;53.160;6.612;2023-02-15T15:03:53;43.85;;;24.10;;
33459;SDS011;19795;53.160;6.612;2023-02-15T15:06:28;47.03;;;23.77;;
33459;SDS011;19795;53.160;6.612;2023-02-15T15:08:58;44.88;;;24.42;;
33459;SDS011;19795;53.160;6.612;2023-02-15T15:14:07;48.45;;;25.77;;
33459;SDS011;19795;53.160;6.612;2023-02-15T15:19:08;49.28;;;26.10;;
33459;SDS011;19795;53.160;6.612;2023-02-15T15:22:11;47.72;;;26.40;;
33459;SDS011;19795;53.160;6.612;2023-02-15T15:41:16;45.65;;;25.75;;
33459;SDS011;19795;53.160;6.612;2023-02-15T15:49:29;50.53;;;26.17;;
33459;SDS011;19795;53.160;6.612;2023-02-15T15:51:59;47.35;;;25.85;;
33459;SDS011;19795;53.160;6.612;2023-02-15T15:54:26;52.05;;;27.30;;
33459;SDS011;19795;53.160;6.612;2023-02-15T15:57:00;49.47;;;26.85;;
33459;SDS011;19795;53.160;6.612;2023-02-15T15:59:29;45.60;;;26.10;;
33459;SDS011;19795;53.160;6.612;2023-02-15T16:01:59;52.33;;;26.85;;
33459;SDS011;19795;53.160;6.612;2023-02-15T16:04:32;50.03;;;26.77;;
33459;SDS011;19795;53.160;6.612;2023-02-15T16:10:44;49.70;;;26.92;;
33459;SDS011;19795;53.160;6.612;2023-02-15T16:12:49;54.10;;;26.50;;
33459;SDS011;19795;53.160;6.612;2023-02-15T16:17:59;47.42;;;26.42;;
33459;SDS011;19795;53.160;6.612;2023-02-15T16:22:58;56.88;;;26.70;;
33459;SDS011;19795;53.160;6.612;2023-02-15T16:28:34;53.08;;;27.63;;
33459;SDS011;19795;53.160;6.612;2023-02-15T16:31:07;54.38;;;26.88;;
33459;SDS011;19795;53.160;6.612;2023-02-15T16:33:37;53.30;;;27.77;;
33459;SDS011;19795;53.160;6.612;2023-02-15T16:41:23;60.58;;;28.70;;
33459;SDS011;19795;53.160;6.612;2023-02-15T16:43:52;53.38;;;28.60;;
33459;SDS011;19795;53.160;6.612;2023-02-15T16:49:05;59.13;;;29.60;;
33459;SDS011;19795;53.160;6.612;2023-02-15T16:51:39;56.97;;;27.98;;
33459;SDS011;19795;53.160;6.612;2023-02-15T16:54:14;62.88;;;27.85;;
33459;SDS011;19795;53.160;6.612;2023-02-15T16:56:43;56.97;;;28.77;;
33459;SDS011;19795;53.160;6.612;2023-02-15T16:59:16;55.60;;;27.98;;
33459;SDS011;19795;53.160;6.612;2023-02-15T17:01:56;53.95;;;27.42;;
33459;SDS011;19795;53.160;6.612;2023-02-15T17:07:00;58.67;;;29.23;;
33459;SDS011;19795;53.160;6.612;2023-02-15T17:09:31;63.03;;;30.08;;
33459;SDS011;19795;53.160;6.612;2023-02-15T17:11:59;62.65;;;31.63;;
33459;SDS011;19795;53.160;6.612;2023-02-15T17:14:27;62.63;;;30.40;;
33459;SDS011;19795;53.160;6.612;2023-02-15T17:17:01;62.00;;;32.55;;
33459;SDS011;19795;53.160;6.612;2023-02-15T17:19:31;69.82;;;32.88;;
33459;SDS011;19795;53.160;6.612;2023-02-15T17:22:05;61.67;;;31.10;;
33459;SDS011;19795;53.160;6.612;2023-02-15T17:24:41;62.58;;;32.03;;
33459;SDS011;19795;53.160;6.612;2023-02-15T17:27:16;64.43;;;31.00;;
33459;SDS011;19795;53.160;6.612;2023-02-15T17:29:44;66.13;;;31.10;;
33459;SDS011;19795;53.160;6.612;2023-02-15T17:32:15;69.15;;;32.13;;
33459;SDS011;19795;53.160;6.612;2023-02-15T17:42:49;58.80;;;29.20;;
33459;SDS011;19795;53.160;6.612;2023-02-15T17:45:15;61.28;;;29.35;;
33459;SDS011;19795;53.160;6.612;2023-02-15T17:47:41;63.38;;;29.40;;
33459;SDS011;19795;53.160;6.612;2023-02-15T17:50:10;60.22;;;29.38;;
33459;SDS011;19795;53.160;6.612;2023-02-15T17:52:44;64.55;;;30.40;;
33459;SDS011;19795;53.160;6.612;2023-02-15T17:55:20;63.72;;;30.58;;
33459;SDS011;19795;53.160;6.612;2023-02-15T17:57:59;66.03;;;29.88;;
33459;SDS011;19795;53.160;6.612;2023-02-15T18:00:27;64.28;;;30.23;;
33459;SDS011;19795;53.160;6.612;2023-02-15T18:03:12;61.42;;;29.48;;
33459;SDS011;19795;53.160;6.612;2023-02-15T18:05:56;64.38;;;29.92;;
33459;SDS011;19795;53.160;6.612;2023-02-15T18:08:40;63.53;;;30.27;;
33459;SDS011;19795;53.160;6.612;2023-02-15T18:14:07;63.83;;;27.92;;
33459;SDS011;19795;53.160;6.612;2023-02-15T18:16:35;61.00;;;29.27;;
33459;SDS011;19795;53.160;6.612;2023-02-15T18:19:03;59.55;;;28.27;;
33459;SDS011;19795;53.160;6.612;2023-02-15T18:21:30;60.28;;;28.80;;
33459;SDS011;19795;53.160;6.612;2023-02-15T18:23:57;61.65;;;28.25;;
33459;SDS011;19795;53.160;6.612;2023-02-15T18:26:23;60.45;;;28.73;;
33459;SDS011;19795;53.160;6.612;2023-02-15T18:28:50;56.63;;;28.02;;
33459;SDS011;19795;53.160;6.612;2023-02-15T18:31:16;58.90;;;28.48;;
33459;SDS011;19795;53.160;6.612;2023-02-15T18:33:44;57.40;;;28.85;;
33459;SDS011;19795;53.160;6.612;2023-02-15T18:36:36;61.42;;;28.58;;
33459;SDS011;19795;53.160;6.612;2023-02-15T18:39:30;59.63;;;28.25;;
33459;SDS011;19795;53.160;6.612;2023-02-15T18:44:54;56.45;;;27.50;;
33459;SDS011;19795;53.160;6.612;2023-02-15T18:47:21;59.45;;;28.23;;
33459;SDS011;19795;53.160;6.612;2023-02-15T18:49:47;57.15;;;28.27;;
33459;SDS011;19795;53.160;6.612;2023-02-15T18:52:14;54.88;;;27.65;;
33459;SDS011;19795;53.160;6.612;2023-02-15T18:54:49;57.55;;;28.50;;
33459;SDS011;19795;53.160;6.612;2023-02-15T18:57:18;57.92;;;27.13;;
33459;SDS011;19795;53.160;6.612;2023-02-15T18:59:44;54.70;;;27.48;;
33459;SDS011;19795;53.160;6.612;2023-02-15T19:02:13;54.58;;;27.45;;
33459;SDS011;19795;53.160;6.612;2023-02-15T19:04:41;61.78;;;27.92;;
33459;SDS011;19795;53.160;6.612;2023-02-15T19:07:24;66.05;;;29.23;;
33459;SDS011;19795;53.160;6.612;2023-02-15T19:09:52;55.78;;;28.85;;
33459;SDS011;19795;53.160;6.612;2023-02-15T19:12:21;64.38;;;28.65;;
33459;SDS011;19795;53.160;6.612;2023-02-15T19:14:47;61.83;;;29.60;;
33459;SDS011;19795;53.160;6.612;2023-02-15T19:17:16;57.97;;;29.02;;
33459;SDS011;19795;53.160;6.612;2023-02-15T19:19:44;61.53;;;29.63;;
33459;SDS011;19795;53.160;6.612;2023-02-15T19:22:12;65.28;;;30.45;;
33459;SDS011;19795;53.160;6.612;2023-02-15T19:24:44;67.22;;;31.20;;
33459;SDS011;19795;53.160;6.612;2023-02-15T19:27:33;62.63;;;31.02;;
33459;SDS011;19795;53.160;6.612;2023-02-15T19:30:06;61.30;;;29.23;;
33459;SDS011;19795;53.160;6.612;2023-02-15T19:32:45;61.78;;;30.67;;
33459;SDS011;19795;53.160;6.612;2023-02-15T19:35:17;65.57;;;30.67;;
33459;SDS011;19795;53.160;6.612;2023-02-15T19:38:20;67.53;;;32.05;;
33459;SDS011;19795;53.160;6.612;2023-02-15T19:40:43;60.95;;;30.85;;
33459;SDS011;19795;53.160;6.612;2023-02-15T19:43:14;62.75;;;29.92;;
33459;SDS011;19795;53.160;6.612;2023-02-15T19:45:41;61.25;;;30.63;;
33459;SDS011;19795;53.160;6.612;2023-02-15T19:48:08;69.47;;;32.80;;
33459;SDS011;19795;53.160;6.612;2023-02-15T19:50:38;66.85;;;31.98;;
33459;SDS011;19795;53.160;6.612;2023-02-15T19:53:05;64.38;;;31.00;;
33459;SDS011;19795;53.160;6.612;2023-02-15T19:55:38;66.13;;;31.85;;
33459;SDS011;19795;53.160;6.612;2023-02-15T19:58:08;63.25;;;31.55;;
33459;SDS011;19795;53.160;6.612;2023-02-15T20:00:36;63.10;;;31.58;;
33459;SDS011;19795;53.160;6.612;2023-02-15T20:03:01;65.25;;;32.65;;
33459;SDS011;19795;53.160;6.612;2023-02-15T20:05:28;68.00;;;33.25;;
33459;SDS011;19795;53.160;6.612;2023-02-15T20:07:55;67.75;;;33.85;;
33459;SDS011;19795;53.160;6.612;2023-02-15T20:10:22;70.70;;;33.90;;
33459;SDS011;19795;53.160;6.612;2023-02-15T20:12:52;68.22;;;33.80;;
33459;SDS011;19795;53.160;6.612;2023-02-15T20:15:23;70.78;;;34.25;;
33459;SDS011;19795;53.160;6.612;2023-02-15T20:17:51;65.38;;;33.45;;
33459;SDS011;19795;53.160;6.612;2023-02-15T20:20:19;70.68;;;33.60;;
33459;SDS011;19795;53.160;6.612;2023-02-15T20:22:46;68.07;;;34.33;;
33459;SDS011;19795;53.160;6.612;2023-02-15T20:27:57;65.30;;;33.72;;
33459;SDS011;19795;53.160;6.612;2023-02-15T20:30:27;68.43;;;33.40;;
33459;SDS011;19795;53.160;6.612;2023-02-15T20:32:55;66.78;;;34.60;;
33459;SDS011;19795;53.160;6.612;2023-02-15T20:35:22;68.05;;;33.97;;
33459;SDS011;19795;53.160;6.612;2023-02-15T20:37:53;73.43;;;35.50;;
